createdAt,value
2022-10-16T00:01:44.063Z,17.17
2022-10-16T00:04:12.745Z,17.73
2022-10-16T00:06:41.478Z,18.93
2022-10-16T00:09:10.055Z,17.47
2022-10-16T00:11:41.231Z,18.27
2022-10-16T00:14:12.358Z,17.20
2022-10-16T00:16:41.417Z,18.00
2022-10-16T00:19:12.761Z,18.80
2022-10-16T00:21:41.437Z,17.73
2022-10-16T00:24:11.368Z,17.37
2022-10-16T00:26:40.994Z,16.93
2022-10-16T00:29:09.916Z,17.87
2022-10-16T00:31:38.693Z,19.63
2022-10-16T00:34:07.256Z,20.20
2022-10-16T00:36:37.047Z,17.90
2022-10-16T00:39:05.907Z,18.70
2022-10-16T00:41:35.063Z,18.53
2022-10-16T00:44:06.440Z,21.80
2022-10-16T00:46:39.807Z,24.03
2022-10-16T00:49:10.657Z,23.20
2022-10-16T00:51:43.351Z,19.93
2022-10-16T00:54:15.506Z,19.07
2022-10-16T00:56:45.387Z,19.27
2022-10-16T00:59:20.292Z,17.80
2022-10-16T01:01:48.679Z,18.97
2022-10-16T01:04:17.449Z,19.73
2022-10-16T01:06:57.419Z,17.93
2022-10-16T01:09:31.900Z,17.63
2022-10-16T01:12:07.699Z,19.40
2022-10-16T01:14:47.737Z,19.67
2022-10-16T01:17:20.627Z,20.70
2022-10-16T01:20:16.248Z,19.27
2022-10-16T01:23:03.841Z,20.57
2022-10-16T01:25:47.538Z,18.87
2022-10-16T01:28:18.108Z,17.17
2022-10-16T01:30:48.661Z,18.73
2022-10-16T01:33:21.436Z,18.80
2022-10-16T01:35:55.496Z,19.17
2022-10-16T01:38:31.679Z,17.80
2022-10-16T01:41:03.514Z,17.93
2022-10-16T01:43:38.192Z,17.87
2022-10-16T01:46:09.098Z,17.60
2022-10-16T01:48:38.778Z,17.73
2022-10-16T01:51:10.757Z,17.03
2022-10-16T01:53:40.078Z,18.43
2022-10-16T01:56:13.367Z,17.50
2022-10-16T01:58:49.489Z,18.33
2022-10-16T02:01:20.529Z,17.53
2022-10-16T02:03:52.471Z,16.77
2022-10-16T02:06:20.981Z,17.60
2022-10-16T02:08:49.577Z,16.83
2022-10-16T02:11:18.067Z,17.50
2022-10-16T02:13:53.190Z,16.43
2022-10-16T02:16:21.673Z,17.27
2022-10-16T02:18:50.800Z,17.83
2022-10-16T02:21:25.661Z,16.40
2022-10-16T02:24:01.997Z,18.47
2022-10-16T02:26:33.808Z,17.70
2022-10-16T02:29:08.878Z,18.00
2022-10-16T02:31:43.323Z,18.07
2022-10-16T02:34:14.680Z,18.60
2022-10-16T02:36:44.127Z,19.63
2022-10-16T02:39:13.447Z,19.47
2022-10-16T02:41:42.136Z,18.53
2022-10-16T02:44:12.060Z,18.30
2022-10-16T02:46:40.439Z,19.03
2022-10-16T02:49:09.016Z,18.23
2022-10-16T02:51:37.856Z,18.27
2022-10-16T02:54:06.776Z,16.77
2022-10-16T02:56:35.163Z,17.67
2022-10-16T02:59:03.721Z,17.63
2022-10-16T03:01:33.575Z,16.60
2022-10-16T03:04:02.096Z,17.60
2022-10-16T03:06:30.486Z,17.97
2022-10-16T03:08:59.066Z,19.07
2022-10-16T03:11:27.467Z,17.67
2022-10-16T03:13:56.006Z,17.93
2022-10-16T03:16:24.425Z,17.70
2022-10-16T03:18:54.261Z,17.50
2022-10-16T03:21:22.670Z,17.47
2022-10-16T03:23:51.300Z,17.27
2022-10-16T03:26:19.671Z,16.47
2022-10-16T03:28:48.232Z,16.20
2022-10-16T03:31:16.689Z,18.70
2022-10-16T03:33:45.118Z,19.20
2022-10-16T03:36:14.798Z,18.27
2022-10-16T03:38:43.201Z,18.33
2022-10-16T03:41:11.596Z,18.53
2022-10-16T03:43:40.125Z,18.97
2022-10-16T03:46:08.695Z,18.33
2022-10-16T03:48:37.098Z,17.20
2022-10-16T03:51:05.714Z,18.27
2022-10-16T03:53:35.380Z,17.50
2022-10-16T03:56:03.938Z,19.23
2022-10-16T03:58:32.307Z,19.40
2022-10-16T04:01:00.839Z,18.00
2022-10-16T04:03:29.257Z,19.40
2022-10-16T04:05:58.015Z,19.17
2022-10-16T04:08:26.490Z,19.10
2022-10-16T04:10:56.307Z,19.60
2022-10-16T04:13:24.865Z,19.63
2022-10-16T04:15:53.347Z,18.97
2022-10-16T04:18:21.876Z,18.47
2022-10-16T04:20:50.257Z,20.47
2022-10-16T04:23:18.679Z,18.70
2022-10-16T04:25:47.066Z,19.47
2022-10-16T04:28:16.817Z,19.27
2022-10-16T04:30:45.260Z,20.27
2022-10-16T04:33:13.927Z,18.80
2022-10-16T04:35:42.308Z,18.13
2022-10-16T04:38:10.756Z,19.23
2022-10-16T04:40:39.138Z,19.43
2022-10-16T04:43:08.438Z,18.97
2022-10-16T04:45:38.180Z,20.93
2022-10-16T04:48:06.747Z,20.33
2022-10-16T04:50:35.186Z,19.93
2022-10-16T04:53:07.930Z,19.77
2022-10-16T04:55:36.375Z,19.57
2022-10-16T04:58:05.026Z,20.80
2022-10-16T05:00:33.557Z,20.27
2022-10-16T05:03:07.058Z,19.67
2022-10-16T05:05:35.997Z,20.30
2022-10-16T05:08:05.389Z,19.23
2022-10-16T05:10:34.057Z,18.40
2022-10-16T05:13:02.559Z,19.70
2022-10-16T05:15:31.028Z,20.47
2022-10-16T05:18:01.892Z,19.13
2022-10-16T05:20:30.517Z,18.40
2022-10-16T05:22:59.185Z,16.83
2022-10-16T05:25:28.451Z,16.67
2022-10-16T05:27:56.885Z,16.20
2022-10-16T05:30:25.448Z,16.37
2022-10-16T05:32:53.958Z,16.13
2022-10-16T05:35:24.368Z,15.03
2022-10-16T05:37:52.865Z,15.17
2022-10-16T05:40:21.280Z,15.30
2022-10-16T05:42:49.687Z,14.33
2022-10-16T05:45:18.318Z,15.50
2022-10-16T05:47:46.758Z,15.00
2022-10-16T05:50:16.828Z,15.63
2022-10-16T05:52:46.658Z,16.57
2022-10-16T05:55:15.217Z,16.43
2022-10-16T05:57:43.649Z,17.20
2022-10-16T06:00:13.027Z,16.37
2022-10-16T06:02:41.537Z,16.87
2022-10-16T06:05:10.216Z,17.13
2022-10-16T06:07:38.730Z,15.77
2022-10-16T06:10:09.992Z,15.90
2022-10-16T06:12:38.428Z,16.73
2022-10-16T06:15:07.607Z,16.80
2022-10-16T06:17:36.027Z,17.00
2022-10-16T06:20:04.550Z,17.20
2022-10-16T06:22:32.965Z,17.20
2022-10-16T06:25:01.644Z,17.13
2022-10-16T06:27:31.356Z,17.57
2022-10-16T06:29:59.956Z,16.90
2022-10-16T06:32:29.907Z,16.80
2022-10-16T06:34:58.437Z,16.23
2022-10-16T06:37:27.378Z,16.20
2022-10-16T06:39:56.294Z,16.03
2022-10-16T06:42:25.046Z,15.03
2022-10-16T06:44:55.114Z,15.27
2022-10-16T06:47:23.753Z,14.00
2022-10-16T06:49:54.354Z,15.90
2022-10-16T06:52:23.098Z,14.57
2022-10-16T06:54:52.388Z,13.83
2022-10-16T06:57:20.808Z,14.07
2022-10-16T06:59:53.254Z,15.10
2022-10-16T07:02:25.420Z,15.53
2022-10-16T07:04:54.377Z,15.67
2022-10-16T07:07:25.658Z,14.03
2022-10-16T07:09:54.202Z,14.27
2022-10-16T07:12:22.708Z,14.20
2022-10-16T07:14:53.179Z,14.10
2022-10-16T07:17:21.617Z,14.27
2022-10-16T07:19:53.845Z,12.63
2022-10-16T07:22:22.457Z,12.33
2022-10-16T07:24:52.848Z,13.00
2022-10-16T07:27:23.285Z,13.23
2022-10-16T07:29:51.859Z,13.85
2022-10-16T07:32:20.282Z,13.63
2022-10-16T07:34:50.137Z,14.30
2022-10-16T07:37:18.569Z,15.00
2022-10-16T07:39:47.158Z,14.60
2022-10-16T07:42:15.607Z,15.00
2022-10-16T07:44:44.137Z,15.13
2022-10-16T07:47:12.591Z,14.90
2022-10-16T07:49:41.187Z,14.83
2022-10-16T07:52:11.057Z,14.73
2022-10-16T07:54:39.603Z,14.23
2022-10-16T07:57:08.007Z,14.97
2022-10-16T07:59:36.972Z,14.57
2022-10-16T08:02:05.425Z,13.37
2022-10-16T08:04:34.046Z,14.50
2022-10-16T08:07:02.517Z,13.43
2022-10-16T08:09:32.436Z,13.47
2022-10-16T08:12:02.435Z,15.10
2022-10-16T08:14:31.258Z,13.97
2022-10-16T08:16:59.721Z,14.70
2022-10-16T08:19:28.330Z,12.17
2022-10-16T08:21:56.828Z,13.00
2022-10-16T08:24:25.326Z,12.30
2022-10-16T08:26:57.307Z,12.47
2022-10-16T08:29:25.848Z,12.97
2022-10-16T08:31:54.326Z,12.57
2022-10-16T08:34:22.889Z,13.13
2022-10-16T08:36:51.357Z,11.50
2022-10-16T08:39:19.916Z,12.27
2022-10-16T08:42:28.464Z,12.13
2022-10-16T08:45:11.188Z,11.32
2022-10-16T08:47:49.749Z,10.27
2022-10-16T08:50:25.116Z,11.32
2022-10-16T08:52:54.061Z,11.63
2022-10-16T08:55:34.560Z,11.75
2022-10-16T08:58:04.359Z,11.13
2022-10-16T09:00:33.005Z,11.00
2022-10-16T09:03:12.708Z,13.27
2022-10-16T09:06:09.978Z,13.40
2022-10-16T09:08:50.573Z,12.68
2022-10-16T09:11:28.897Z,13.45
2022-10-16T09:14:07.011Z,12.52
2022-10-16T09:16:39.058Z,11.85
2022-10-16T09:19:25.566Z,12.32
2022-10-16T09:21:54.247Z,11.55
2022-10-16T09:24:27.194Z,12.50
2022-10-16T09:26:57.834Z,11.15
2022-10-16T09:29:28.016Z,13.07
2022-10-16T09:32:07.716Z,11.65
2022-10-16T09:34:41.407Z,11.30
2022-10-16T09:37:15.714Z,12.10
2022-10-16T09:39:48.447Z,12.10
2022-10-16T09:42:19.336Z,11.07
2022-10-16T09:44:53.127Z,12.87
2022-10-16T09:47:25.301Z,11.53
2022-10-16T09:49:55.197Z,12.97
2022-10-16T09:52:24.650Z,12.07
2022-10-16T09:54:54.858Z,11.23
2022-10-16T09:57:25.098Z,12.97
2022-10-16T09:59:56.947Z,11.20
2022-10-16T10:02:32.987Z,13.37
2022-10-16T10:05:01.667Z,12.40
2022-10-16T10:07:34.206Z,12.50
2022-10-16T10:10:05.039Z,12.33
2022-10-16T10:12:36.777Z,13.67
2022-10-16T10:15:12.660Z,15.77
2022-10-16T10:17:49.477Z,14.53
2022-10-16T10:20:29.678Z,13.97
2022-10-16T10:22:59.109Z,14.97
2022-10-16T10:25:44.768Z,14.00
2022-10-16T10:28:53.335Z,13.70
2022-10-16T10:31:29.358Z,13.97
2022-10-16T10:34:03.417Z,13.57
2022-10-16T10:36:35.790Z,14.53
2022-10-16T10:39:10.793Z,12.67
2022-10-16T10:42:05.067Z,12.50
2022-10-16T10:44:51.119Z,12.23
2022-10-16T10:47:29.237Z,11.93
2022-10-16T10:50:09.177Z,11.88
2022-10-16T10:52:53.199Z,12.43
2022-10-16T10:55:29.188Z,12.52
2022-10-16T10:58:12.548Z,11.68
2022-10-16T11:00:52.400Z,12.32
2022-10-16T11:03:36.880Z,12.15
2022-10-16T11:06:10.429Z,13.40
2022-10-16T11:08:43.320Z,45.90
2022-10-16T11:11:17.528Z,16.42
2022-10-16T11:13:54.326Z,12.48
2022-10-16T11:16:26.469Z,13.68
2022-10-16T11:19:02.161Z,13.30
2022-10-16T11:21:35.763Z,14.57
2022-10-16T11:24:12.656Z,13.43
2022-10-16T11:26:45.239Z,15.23
2022-10-16T11:29:20.232Z,15.10
2022-10-16T11:31:52.398Z,13.93
2022-10-16T11:34:31.767Z,13.25
2022-10-16T11:37:10.931Z,17.73
2022-10-16T11:39:43.317Z,12.48
2022-10-16T11:42:15.792Z,12.57
2022-10-16T11:44:54.011Z,12.60
2022-10-16T11:47:59.874Z,16.13
2022-10-16T11:50:36.798Z,13.00
2022-10-16T11:53:15.889Z,31.05
2022-10-16T11:55:47.443Z,28.63
2022-10-16T11:58:27.471Z,16.30
2022-10-16T12:01:02.561Z,13.67
2022-10-16T12:03:36.613Z,24.63
2022-10-16T12:06:21.371Z,13.82
2022-10-16T12:08:50.277Z,14.37
2022-10-16T12:11:33.698Z,13.10
2022-10-16T12:14:24.737Z,12.30
2022-10-16T12:16:55.759Z,15.73
2022-10-16T12:19:25.839Z,14.60
2022-10-16T12:21:59.727Z,14.40
2022-10-16T12:24:36.437Z,13.80
2022-10-16T12:27:07.049Z,14.80
2022-10-16T12:29:39.816Z,12.70
2022-10-16T12:32:41.944Z,14.37
2022-10-16T12:35:22.229Z,14.20
2022-10-16T12:37:52.995Z,13.23
2022-10-16T12:40:33.279Z,13.52
2022-10-16T12:43:12.889Z,12.57
2022-10-16T12:45:41.518Z,12.63
2022-10-16T12:48:29.231Z,12.80
2022-10-16T12:51:23.888Z,13.45
2022-10-16T12:54:02.438Z,13.77
2022-10-16T12:56:43.129Z,11.98
2022-10-16T12:59:20.238Z,11.70
2022-10-16T13:02:03.220Z,12.27
2022-10-16T13:04:47.775Z,11.65
2022-10-16T13:07:36.069Z,12.07
2022-10-16T13:10:25.737Z,12.38
2022-10-16T13:13:15.877Z,12.95
2022-10-16T13:15:56.449Z,13.30
2022-10-16T13:18:31.758Z,12.38
2022-10-16T13:21:13.668Z,12.98
2022-10-16T13:23:50.336Z,11.35
2022-10-16T13:26:30.800Z,11.68
2022-10-16T13:29:02.667Z,11.32
2022-10-16T13:31:32.428Z,11.00
2022-10-16T13:34:02.506Z,11.95
2022-10-16T13:36:33.128Z,12.50
2022-10-16T13:39:08.676Z,11.52
2022-10-16T13:41:38.535Z,12.30
2022-10-16T13:44:14.068Z,10.50
2022-10-16T13:46:42.520Z,10.88
2022-10-16T13:49:16.356Z,10.75
2022-10-16T13:51:57.176Z,10.18
2022-10-16T13:54:26.530Z,11.98
2022-10-16T13:57:03.464Z,12.07
2022-10-16T13:59:39.980Z,12.02
2022-10-16T14:02:20.810Z,11.25
2022-10-16T14:04:50.087Z,11.35
2022-10-16T14:07:25.315Z,12.52
2022-10-16T14:09:55.699Z,16.35
2022-10-16T14:12:28.154Z,14.05
2022-10-16T14:14:59.502Z,14.10
2022-10-16T14:17:30.248Z,14.20
2022-10-16T14:20:04.115Z,12.65
2022-10-16T14:22:36.131Z,12.10
2022-10-16T14:25:23.799Z,13.60
2022-10-16T14:30:32.249Z,14.20
2022-10-16T14:33:02.498Z,14.23
2022-10-16T14:35:33.400Z,13.80
2022-10-16T14:38:03.518Z,14.00
2022-10-16T14:40:33.775Z,14.93
2022-10-16T14:43:04.788Z,15.77
2022-10-16T14:45:36.416Z,14.90
2022-10-16T14:48:08.471Z,14.77
2022-10-16T14:50:36.917Z,14.13
2022-10-16T14:53:13.262Z,16.60
2022-10-16T14:55:42.831Z,17.50
2022-10-16T14:58:17.406Z,19.75
2022-10-16T15:00:45.950Z,17.88
2022-10-16T15:03:14.652Z,16.45
2022-10-16T15:05:43.427Z,20.73
2022-10-16T15:08:13.425Z,18.05
2022-10-16T15:10:43.759Z,16.50
2022-10-16T15:13:15.807Z,18.75
2022-10-16T15:15:46.132Z,18.67
2022-10-16T15:18:15.888Z,18.13
2022-10-16T15:20:44.362Z,20.40
2022-10-16T15:23:17.171Z,17.47
2022-10-16T15:25:47.718Z,16.03
2022-10-16T15:28:18.712Z,17.87
2022-10-16T15:30:48.148Z,18.63
2022-10-16T15:33:19.250Z,19.70
2022-10-16T15:35:49.931Z,18.73
2022-10-16T15:38:19.467Z,17.30
2022-10-16T15:40:48.486Z,17.53
2022-10-16T15:43:18.777Z,17.67
2022-10-16T15:45:54.428Z,18.87
2022-10-16T15:48:22.850Z,18.27
2022-10-16T15:50:51.260Z,18.43
2022-10-16T15:53:19.698Z,16.10
2022-10-16T15:55:48.117Z,15.53
2022-10-16T15:58:17.988Z,14.17
2022-10-16T16:00:47.039Z,14.07
2022-10-16T16:03:16.020Z,14.77
2022-10-16T16:05:46.727Z,15.57
2022-10-16T16:08:15.500Z,15.27
2022-10-16T16:10:43.917Z,15.07
2022-10-16T16:13:12.689Z,14.93
2022-10-16T16:15:43.537Z,15.67
2022-10-16T16:18:11.986Z,15.40
2022-10-16T16:20:40.375Z,15.67
2022-10-16T16:23:08.936Z,15.17
2022-10-16T16:25:37.401Z,14.47
2022-10-16T16:28:05.881Z,16.03
2022-10-16T16:30:34.349Z,14.07
2022-10-16T16:33:04.531Z,15.30
2022-10-16T16:35:32.936Z,14.33
2022-10-16T16:38:01.496Z,14.93
2022-10-16T16:40:29.897Z,14.70
2022-10-16T16:42:58.277Z,15.67
2022-10-16T16:47:55.186Z,16.33
2022-10-16T16:50:24.986Z,14.97
2022-10-16T16:52:53.428Z,14.93
2022-10-16T16:55:21.870Z,15.00
2022-10-16T16:57:50.639Z,15.30
2022-10-16T17:00:19.348Z,15.53
2022-10-16T17:02:50.887Z,15.50
2022-10-16T17:05:19.822Z,16.20
2022-10-16T17:07:49.539Z,15.50
2022-10-16T17:10:18.108Z,16.70
2022-10-16T17:12:47.232Z,17.23
2022-10-16T17:15:15.877Z,19.33
2022-10-16T17:17:44.338Z,17.53
2022-10-16T17:20:12.997Z,17.73
2022-10-16T17:22:41.664Z,18.17
2022-10-16T17:25:11.708Z,16.30
2022-10-16T17:27:40.140Z,16.90
2022-10-16T17:30:09.366Z,15.77
2022-10-16T17:32:37.856Z,15.37
2022-10-16T17:35:06.939Z,16.67
2022-10-16T17:37:35.407Z,17.27
2022-10-16T17:40:04.126Z,16.93
2022-10-16T17:42:33.888Z,17.17
2022-10-16T17:45:02.467Z,17.13
2022-10-16T17:47:31.037Z,15.40
2022-10-16T17:49:59.719Z,16.40
2022-10-16T17:52:28.625Z,16.20
2022-10-16T17:54:58.487Z,15.80
2022-10-16T17:57:27.023Z,16.93
2022-10-16T17:59:57.396Z,17.17
2022-10-16T18:02:26.214Z,17.03
2022-10-16T18:04:55.856Z,14.87
2022-10-16T18:07:24.576Z,14.60
2022-10-16T18:10:21.357Z,16.43
2022-10-16T18:12:41.810Z,16.03
2022-10-16T18:15:12.957Z,15.30
2022-10-16T18:17:41.433Z,15.80
2022-10-16T18:20:10.927Z,16.73
2022-10-16T18:22:39.425Z,17.80
2022-10-16T18:25:08.682Z,18.43
2022-10-16T18:27:37.109Z,17.83
2022-10-16T18:30:06.127Z,19.00
2022-10-16T18:32:35.967Z,20.43
2022-10-16T18:35:04.593Z,20.10
2022-10-16T18:37:33.279Z,19.37
2022-10-16T18:40:01.836Z,18.60
2022-10-16T18:42:30.298Z,18.53
2022-10-16T18:44:58.851Z,19.13
2022-10-16T18:47:27.677Z,21.17
2022-10-16T18:49:57.716Z,20.30
2022-10-16T18:52:27.110Z,18.30
2022-10-16T18:54:58.560Z,18.00
2022-10-16T18:57:30.986Z,19.27
2022-10-16T18:59:59.574Z,19.70
2022-10-16T19:02:28.026Z,24.97
2022-10-16T19:04:57.908Z,22.13
2022-10-16T19:07:27.499Z,25.80
2022-10-16T19:09:56.196Z,27.87
2022-10-16T19:12:30.890Z,25.00
2022-10-16T19:14:59.407Z,30.70
2022-10-16T19:17:27.857Z,29.20
2022-10-16T19:19:57.786Z,27.77
2022-10-16T19:22:43.425Z,24.40
2022-10-16T19:25:11.947Z,23.03
2022-10-16T19:27:40.359Z,18.73
2022-10-16T19:30:09.916Z,17.90
2022-10-16T19:32:38.397Z,17.73
2022-10-16T19:35:09.566Z,16.80
2022-10-16T19:37:38.317Z,15.87
2022-10-16T19:40:08.047Z,16.10
2022-10-16T19:42:43.168Z,16.37
2022-10-16T19:45:12.736Z,16.90
2022-10-16T19:47:41.268Z,16.00
2022-10-16T19:50:12.597Z,16.27
2022-10-16T19:52:41.077Z,16.23
2022-10-16T19:55:10.006Z,16.30
2022-10-16T19:57:39.457Z,15.23
2022-10-16T20:00:10.018Z,16.03
2022-10-16T20:02:38.574Z,16.73
2022-10-16T20:05:07.848Z,15.27
2022-10-16T20:07:37.875Z,16.03
2022-10-16T20:10:07.307Z,15.63
2022-10-16T20:12:38.111Z,16.40
2022-10-16T20:15:07.298Z,16.50
2022-10-16T20:17:35.725Z,16.90
2022-10-16T20:20:04.780Z,14.87
2022-10-16T20:22:33.287Z,15.47
2022-10-16T20:25:05.963Z,15.47
2022-10-16T20:27:38.307Z,15.10
2022-10-16T20:30:07.471Z,15.73
2022-10-16T20:32:35.887Z,16.97
2022-10-16T20:35:07.185Z,16.67
2022-10-16T20:37:36.498Z,17.07
2022-10-16T20:40:07.438Z,16.30
2022-10-16T20:42:35.837Z,15.03
2022-10-16T20:45:04.628Z,15.93
2022-10-16T20:47:33.035Z,16.83
2022-10-16T20:50:01.599Z,16.30
2022-10-16T20:52:33.578Z,17.00
2022-10-16T20:55:02.118Z,17.87
2022-10-16T20:57:31.969Z,17.53
2022-10-16T21:00:00.497Z,17.30
2022-10-16T21:02:28.928Z,17.40
2022-10-16T21:04:57.518Z,17.13
2022-10-16T21:07:26.399Z,17.07
2022-10-16T21:09:56.887Z,16.00
2022-10-16T21:12:26.487Z,16.90
2022-10-16T21:15:13.896Z,16.70
2022-10-16T21:17:43.655Z,16.30
2022-10-16T21:20:12.290Z,16.80
2022-10-16T21:22:40.750Z,16.20
2022-10-16T21:25:09.891Z,15.93
2022-10-16T21:27:39.132Z,19.20
2022-10-16T21:30:10.986Z,17.70
2022-10-16T21:32:40.025Z,16.70
2022-10-16T21:35:09.937Z,17.47
2022-10-16T21:37:38.349Z,17.20
2022-10-16T21:40:07.927Z,18.10
2022-10-16T21:42:36.368Z,16.63
2022-10-16T21:45:05.147Z,17.20
2022-10-16T21:47:35.499Z,16.50
2022-10-16T21:50:04.052Z,16.60
2022-10-16T21:52:32.798Z,16.33
2022-10-16T21:55:01.361Z,15.73
2022-10-16T21:57:30.132Z,15.30
2022-10-16T21:59:58.839Z,17.50
2022-10-16T22:02:27.358Z,16.90
2022-10-16T22:04:57.275Z,16.07
2022-10-16T22:07:26.123Z,15.23
2022-10-16T22:09:54.821Z,15.00
2022-10-16T22:12:23.277Z,14.53
2022-10-16T22:14:51.816Z,14.60
2022-10-16T22:17:20.247Z,14.00
2022-10-16T22:19:48.937Z,14.43
2022-10-16T22:22:18.608Z,14.90
2022-10-16T22:24:47.257Z,16.03
2022-10-16T22:27:15.768Z,16.20
2022-10-16T22:29:44.206Z,16.37
2022-10-16T22:32:12.646Z,16.77
2022-10-16T22:34:41.186Z,16.63
2022-10-16T22:37:09.553Z,16.57
2022-10-16T22:39:39.546Z,16.63
2022-10-16T22:42:08.118Z,15.50
2022-10-16T22:44:36.776Z,15.43
2022-10-16T22:47:05.198Z,15.10
2022-10-16T22:49:33.700Z,15.97
2022-10-16T22:52:02.181Z,14.83
2022-10-16T22:54:30.768Z,15.70
2022-10-16T22:57:00.516Z,16.50
2022-10-16T22:59:28.997Z,15.17
2022-10-16T23:01:57.477Z,16.30
2022-10-16T23:04:25.932Z,16.67
2022-10-16T23:06:55.182Z,15.67
2022-10-16T23:09:23.857Z,15.33
2022-10-16T23:11:52.604Z,15.93
2022-10-16T23:14:23.310Z,17.83
2022-10-16T23:16:51.877Z,16.60
2022-10-16T23:19:20.337Z,17.00
2022-10-16T23:21:48.798Z,17.43
2022-10-16T23:24:17.421Z,15.83
2022-10-16T23:26:45.830Z,16.40
2022-10-16T23:29:14.468Z,16.00
2022-10-16T23:31:44.299Z,15.67
2022-10-16T23:34:12.830Z,16.40
2022-10-16T23:36:43.123Z,15.87
2022-10-16T23:39:11.595Z,16.40
2022-10-16T23:41:40.157Z,16.67
2022-10-16T23:44:08.697Z,17.33
2022-10-16T23:46:37.116Z,16.10
2022-10-16T23:49:06.950Z,16.53
2022-10-16T23:51:35.368Z,17.43
2022-10-16T23:54:03.807Z,17.63
2022-10-16T23:56:32.236Z,16.80
2022-10-16T23:59:00.817Z,17.03
